createdAt,value
2023-04-10T00:02:00.435Z,100.00
2023-04-10T00:04:28.437Z,100.00
2023-04-10T00:06:55.476Z,100.00
2023-04-10T00:09:22.037Z,100.00
2023-04-10T00:11:48.544Z,100.00
2023-04-10T00:14:14.977Z,100.00
2023-04-10T00:16:41.574Z,100.00
2023-04-10T00:19:08.129Z,100.00
2023-04-10T00:21:34.598Z,100.00
2023-04-10T00:24:01.043Z,100.00
2023-04-10T00:26:27.449Z,100.00
2023-04-10T00:28:53.874Z,100.00
2023-04-10T00:31:20.445Z,100.00
2023-04-10T00:33:47.061Z,100.00
2023-04-10T00:36:13.567Z,100.00
2023-04-10T00:38:40.073Z,100.00
2023-04-10T00:41:06.917Z,100.00
2023-04-10T00:43:33.332Z,100.00
2023-04-10T00:45:59.868Z,100.00
2023-04-10T00:48:26.562Z,100.00
2023-04-10T00:50:53.136Z,100.00
2023-04-10T00:53:20.275Z,100.00
2023-04-10T00:55:47.294Z,100.00
2023-04-10T00:58:14.643Z,100.00
2023-04-10T01:00:41.631Z,100.00
2023-04-10T01:03:09.395Z,100.00
2023-04-10T01:05:43.936Z,100.00
2023-04-10T01:08:34.954Z,100.00
2023-04-10T01:11:21.141Z,100.00
2023-04-10T01:14:01.285Z,100.00
2023-04-10T01:16:46.488Z,100.00
2023-04-10T01:19:33.255Z,100.00
2023-04-10T01:22:03.815Z,100.00
2023-04-10T01:24:46.861Z,100.00
2023-04-10T01:27:45.638Z,100.00
2023-04-10T01:30:14.777Z,100.00
2023-04-10T01:32:41.695Z,100.00
2023-04-10T01:35:08.946Z,100.00
2023-04-10T01:37:40.870Z,100.00
2023-04-10T01:40:10.834Z,100.00
2023-04-10T01:42:47.455Z,100.00
2023-04-10T01:45:18.256Z,100.00
2023-04-10T01:47:44.940Z,100.00
2023-04-10T01:50:12.127Z,100.00
2023-04-10T01:52:40.247Z,100.00
2023-04-10T01:55:08.420Z,100.00
2023-04-10T01:57:36.436Z,100.00
2023-04-10T02:00:06.840Z,100.00
2023-04-10T02:02:34.234Z,100.00
2023-04-10T02:05:01.076Z,100.00
2023-04-10T02:07:57.578Z,100.00
2023-04-10T02:10:37.598Z,100.00
2023-04-10T02:13:07.241Z,100.00
2023-04-10T02:15:35.524Z,100.00
2023-04-10T02:18:06.839Z,100.00
2023-04-10T02:20:33.534Z,100.00
2023-04-10T02:23:03.618Z,100.00
2023-04-10T02:25:33.935Z,100.00
2023-04-10T02:28:05.201Z,100.00
2023-04-10T02:30:32.966Z,100.00
2023-04-10T02:32:59.562Z,100.00
2023-04-10T02:35:26.562Z,100.00
2023-04-10T02:37:52.948Z,100.00
2023-04-10T02:40:19.386Z,100.00
2023-04-10T02:42:46.130Z,100.00
2023-04-10T02:45:12.505Z,100.00
2023-04-10T02:47:38.896Z,100.00
2023-04-10T02:50:05.977Z,100.00
2023-04-10T02:52:32.387Z,100.00
2023-04-10T02:54:58.769Z,100.00
2023-04-10T02:57:26.184Z,100.00
2023-04-10T02:59:52.771Z,100.00
2023-04-10T03:02:19.298Z,100.00
2023-04-10T03:04:46.023Z,100.00
2023-04-10T03:07:12.489Z,100.00
2023-04-10T03:09:38.940Z,100.00
2023-04-10T03:12:05.416Z,100.00
2023-04-10T03:14:31.830Z,100.00
2023-04-10T03:16:58.274Z,100.00
2023-04-10T03:19:26.611Z,100.00
2023-04-10T03:21:53.581Z,100.00
2023-04-10T03:24:20.725Z,100.00
2023-04-10T03:26:47.409Z,100.00
2023-04-10T03:29:18.756Z,100.00
2023-04-10T03:31:46.016Z,100.00
2023-04-10T03:34:12.536Z,100.00
2023-04-10T03:36:38.991Z,100.00
2023-04-10T03:39:05.910Z,100.00
2023-04-10T03:41:32.387Z,100.00
2023-04-10T03:43:58.836Z,100.00
2023-04-10T03:46:25.392Z,100.00
2023-04-10T03:48:53.891Z,100.00
2023-04-10T03:51:20.510Z,100.00
2023-04-10T03:53:47.167Z,100.00
2023-04-10T03:56:13.697Z,100.00
2023-04-10T03:58:40.261Z,100.00
2023-04-10T04:01:07.138Z,100.00
2023-04-10T04:03:33.916Z,100.00
2023-04-10T04:06:00.530Z,100.00
2023-04-10T04:08:26.955Z,100.00
2023-04-10T04:10:53.387Z,100.00
2023-04-10T04:13:19.751Z,100.00
2023-04-10T04:15:47.829Z,100.00
2023-04-10T04:18:14.305Z,100.00
2023-04-10T04:20:40.992Z,100.00
2023-04-10T04:23:07.375Z,100.00
2023-04-10T04:25:33.786Z,100.00
2023-04-10T04:28:01.124Z,100.00
2023-04-10T04:30:27.491Z,100.00
2023-04-10T04:32:53.973Z,100.00
2023-04-10T04:35:20.489Z,100.00
2023-04-10T04:37:46.898Z,100.00
2023-04-10T04:40:13.342Z,100.00
2023-04-10T04:42:39.739Z,100.00
2023-04-10T04:45:06.908Z,100.00
2023-04-10T04:47:33.340Z,100.00
2023-04-10T04:49:59.715Z,100.00
2023-04-10T04:52:27.492Z,100.00
2023-04-10T04:54:53.913Z,100.00
2023-04-10T04:57:20.395Z,100.00
2023-04-10T04:59:46.789Z,100.00
2023-04-10T05:02:13.237Z,100.00
2023-04-10T05:04:39.642Z,100.00
2023-04-10T05:07:06.080Z,100.00
2023-04-10T05:09:32.498Z,100.00
2023-04-10T05:11:58.887Z,100.00
2023-04-10T05:14:25.375Z,100.00
2023-04-10T05:16:51.791Z,100.00
2023-04-10T05:19:18.208Z,100.00
2023-04-10T05:21:44.608Z,100.00
2023-04-10T05:24:11.157Z,100.00
2023-04-10T05:26:37.861Z,100.00
2023-04-10T05:29:04.402Z,100.00
2023-04-10T05:31:30.878Z,100.00
2023-04-10T05:33:57.324Z,100.00
2023-04-10T05:36:23.731Z,100.00
2023-04-10T05:38:50.165Z,100.00
2023-04-10T05:41:16.650Z,100.00
2023-04-10T05:43:43.129Z,100.00
2023-04-10T05:46:09.585Z,100.00
2023-04-10T05:48:36.072Z,100.00
2023-04-10T05:51:02.524Z,100.00
2023-04-10T05:53:31.251Z,100.00
2023-04-10T05:55:59.496Z,100.00
2023-04-10T05:58:27.029Z,100.00
2023-04-10T06:00:53.478Z,100.00
2023-04-10T06:03:20.214Z,100.00
2023-04-10T06:05:46.764Z,100.00
2023-04-10T06:08:13.186Z,100.00
2023-04-10T06:10:39.848Z,100.00
2023-04-10T06:13:07.640Z,100.00
2023-04-10T06:15:35.315Z,100.00
2023-04-10T06:18:02.131Z,100.00
2023-04-10T06:20:28.756Z,100.00
2023-04-10T06:22:55.543Z,100.00
2023-04-10T06:25:22.234Z,100.00
2023-04-10T06:27:48.747Z,100.00
2023-04-10T06:30:15.524Z,100.00
2023-04-10T06:32:42.109Z,100.00
2023-04-10T06:35:09.111Z,100.00
2023-04-10T06:37:35.621Z,100.00
2023-04-10T06:40:09.289Z,100.00
2023-04-10T06:42:36.888Z,100.00
2023-04-10T06:45:04.281Z,100.00
2023-04-10T06:47:32.192Z,100.00
2023-04-10T06:49:58.939Z,100.00
2023-04-10T06:52:26.006Z,100.00
2023-04-10T06:54:52.397Z,100.00
2023-04-10T06:57:18.859Z,100.00
2023-04-10T06:59:45.532Z,100.00
2023-04-10T07:02:12.286Z,100.00
2023-04-10T07:04:38.725Z,100.00
2023-04-10T07:07:09.689Z,100.00
2023-04-10T07:09:36.255Z,100.00
2023-04-10T07:12:02.710Z,100.00
2023-04-10T07:14:29.239Z,100.00
2023-04-10T07:16:55.677Z,100.00
2023-04-10T07:19:22.107Z,100.00
2023-04-10T07:21:50.206Z,100.00
2023-04-10T07:24:17.578Z,100.00
2023-04-10T07:26:44.992Z,100.00
2023-04-10T07:29:11.969Z,100.00
2023-04-10T07:31:38.653Z,100.00
2023-04-10T07:34:05.335Z,100.00
2023-04-10T07:36:31.959Z,100.00
2023-04-10T07:38:58.704Z,100.00
2023-04-10T07:41:25.447Z,100.00
2023-04-10T07:43:51.882Z,100.00
2023-04-10T07:46:18.396Z,100.00
2023-04-10T07:48:44.842Z,100.00
2023-04-10T07:51:11.489Z,100.00
2023-04-10T07:53:38.115Z,100.00
2023-04-10T07:56:04.904Z,100.00
2023-04-10T07:58:31.924Z,100.00
2023-04-10T08:00:58.702Z,100.00
2023-04-10T08:03:26.535Z,100.00
2023-04-10T08:05:53.097Z,100.00
2023-04-10T08:08:19.511Z,100.00
2023-04-10T08:10:45.961Z,100.00
2023-04-10T08:13:12.674Z,100.00
2023-04-10T08:15:39.069Z,100.00
2023-04-10T08:18:05.507Z,100.00
2023-04-10T08:20:36.773Z,100.00
2023-04-10T08:25:50.820Z,100.00
2023-04-10T08:28:17.462Z,100.00
2023-04-10T08:30:43.970Z,100.00
2023-04-10T08:33:12.612Z,100.00
2023-04-10T08:35:39.033Z,98.93
2023-04-10T08:38:13.572Z,98.69
2023-04-10T08:40:41.371Z,97.22
2023-04-10T08:43:07.798Z,96.06
2023-04-10T08:45:34.184Z,95.71
2023-04-10T08:48:05.353Z,93.14
2023-04-10T08:50:36.117Z,92.97
2023-04-10T08:53:08.663Z,91.53
2023-04-10T08:55:35.378Z,90.53
2023-04-10T08:58:02.301Z,89.50
2023-04-10T09:00:29.331Z,87.10
2023-04-10T09:02:58.368Z,83.12
2023-04-10T09:05:29.659Z,79.03
2023-04-10T09:07:56.152Z,78.65
2023-04-10T09:10:23.697Z,79.01
2023-04-10T09:12:50.308Z,74.24
2023-04-10T09:15:16.724Z,72.39
2023-04-10T09:18:03.747Z,63.59
2023-04-10T09:20:31.906Z,68.19
2023-04-10T09:22:58.560Z,61.73
2023-04-10T09:25:33.526Z,57.47
2023-04-10T09:28:05.544Z,56.55
2023-04-10T09:30:42.225Z,53.93
2023-04-10T09:33:35.598Z,51.22
2023-04-10T09:36:03.977Z,55.81
2023-04-10T09:38:30.642Z,54.67
2023-04-10T09:41:08.480Z,50.18
2023-04-10T09:43:34.904Z,52.98
2023-04-10T09:46:01.305Z,51.15
2023-04-10T09:48:28.015Z,51.12
2023-04-10T09:50:54.525Z,50.63
2023-04-10T09:53:23.752Z,49.61
2023-04-10T09:55:50.821Z,49.16
2023-04-10T09:58:18.433Z,48.70
2023-04-10T10:00:51.653Z,48.20
2023-04-10T10:03:19.684Z,48.28
2023-04-10T10:05:52.420Z,47.14
2023-04-10T10:08:21.400Z,46.94
2023-04-10T10:10:53.978Z,46.44
2023-04-10T10:13:52.062Z,43.96
2023-04-10T10:16:29.499Z,43.70
2023-04-10T10:19:12.893Z,43.47
2023-04-10T10:21:41.691Z,45.29
2023-04-10T10:24:09.386Z,45.37
2023-04-10T10:26:38.870Z,44.36
2023-04-10T10:29:10.688Z,44.82
2023-04-10T10:31:38.847Z,44.46
2023-04-10T10:34:07.518Z,43.83
2023-04-10T10:36:35.678Z,43.88
2023-04-10T10:39:11.410Z,42.52
2023-04-10T10:41:51.908Z,40.43
2023-04-10T10:44:33.143Z,40.85
2023-04-10T10:47:27.159Z,39.20
2023-04-10T10:50:03.106Z,41.42
2023-04-10T10:52:57.374Z,39.29
2023-04-10T10:55:36.739Z,41.20
2023-04-10T10:58:05.410Z,40.22
2023-04-10T11:01:04.977Z,38.35
2023-04-10T11:03:31.616Z,39.34
2023-04-10T11:06:07.467Z,38.74
2023-04-10T11:08:34.080Z,39.62
2023-04-10T11:11:02.021Z,39.15
2023-04-10T11:13:28.671Z,38.51
2023-04-10T11:15:59.853Z,37.53
2023-04-10T11:18:44.745Z,36.82
2023-04-10T11:21:13.068Z,37.73
2023-04-10T11:23:59.460Z,36.43
2023-04-10T11:26:35.412Z,36.68
2023-04-10T11:29:03.274Z,37.76
2023-04-10T11:31:30.230Z,37.81
2023-04-10T11:33:57.493Z,37.69
2023-04-10T11:36:24.520Z,37.27
2023-04-10T11:39:06.006Z,36.67
2023-04-10T11:41:34.535Z,37.30
2023-04-10T11:44:02.534Z,37.11
2023-04-10T11:46:29.490Z,37.15
2023-04-10T11:49:01.239Z,37.00
2023-04-10T11:51:28.699Z,36.83
2023-04-10T11:54:08.423Z,35.26
2023-04-10T11:56:36.264Z,36.94
2023-04-10T11:59:07.219Z,36.58
2023-04-10T12:01:34.081Z,36.71
2023-04-10T12:04:01.503Z,36.51
2023-04-10T12:06:28.347Z,36.68
2023-04-10T12:08:55.158Z,36.75
2023-04-10T12:11:24.575Z,36.96
2023-04-10T12:13:58.145Z,36.79
2023-04-10T12:16:25.291Z,37.09
2023-04-10T12:18:53.472Z,37.09
2023-04-10T12:21:20.677Z,37.21
2023-04-10T12:23:47.103Z,37.00
2023-04-10T12:26:17.775Z,36.76
2023-04-10T12:28:53.465Z,37.32
2023-04-10T12:31:28.125Z,36.23
2023-04-10T12:33:57.774Z,36.95
2023-04-10T12:36:29.818Z,36.96
2023-04-10T12:39:00.756Z,35.89
2023-04-10T12:41:30.454Z,35.71
2023-04-10T12:44:10.852Z,34.64
2023-04-10T12:46:37.620Z,34.75
2023-04-10T12:49:15.775Z,33.40
2023-04-10T12:51:46.246Z,33.92
2023-04-10T12:54:27.265Z,33.48
2023-04-10T12:56:54.541Z,33.45
2023-04-10T12:59:21.643Z,33.79
2023-04-10T13:01:49.457Z,33.24
2023-04-10T13:04:16.685Z,33.60
2023-04-10T13:06:47.221Z,33.19
2023-04-10T13:09:14.710Z,32.60
2023-04-10T13:11:42.132Z,32.70
2023-04-10T13:14:09.300Z,32.53
2023-04-10T13:16:35.807Z,32.50
2023-04-10T13:19:02.494Z,32.02
2023-04-10T13:21:29.244Z,32.15
2023-04-10T13:23:56.351Z,32.34
2023-04-10T13:26:23.434Z,32.72
2023-04-10T13:28:50.110Z,32.66
2023-04-10T13:31:16.563Z,32.17
2023-04-10T13:33:48.069Z,31.86
2023-04-10T13:36:15.433Z,32.17
2023-04-10T13:38:42.325Z,32.62
2023-04-10T13:41:09.393Z,32.53
2023-04-10T13:43:36.877Z,32.43
2023-04-10T13:46:03.428Z,32.29
2023-04-10T13:48:37.286Z,32.99
2023-04-10T13:51:06.930Z,32.93
2023-04-10T13:53:33.352Z,33.24
2023-04-10T13:55:59.897Z,32.74
2023-04-10T13:58:31.847Z,32.99
2023-04-10T14:00:58.772Z,32.95
2023-04-10T14:03:25.494Z,32.77
2023-04-10T14:05:52.882Z,32.04
2023-04-10T14:08:19.569Z,31.60
2023-04-10T14:10:50.703Z,31.62
2023-04-10T14:13:17.735Z,31.89
2023-04-10T14:15:44.510Z,31.71
2023-04-10T14:18:11.236Z,31.90
2023-04-10T14:20:37.732Z,31.62
2023-04-10T14:23:04.377Z,31.35
2023-04-10T14:25:30.808Z,31.22
2023-04-10T14:27:57.314Z,30.62
2023-04-10T14:30:25.919Z,30.84
2023-04-10T14:32:52.475Z,30.89
2023-04-10T14:35:19.027Z,31.08
2023-04-10T14:37:45.634Z,31.17
2023-04-10T14:40:12.164Z,31.66
2023-04-10T14:42:38.667Z,31.81
2023-04-10T14:45:06.193Z,32.07
2023-04-10T14:47:32.809Z,32.12
2023-04-10T14:49:59.262Z,32.36
2023-04-10T14:52:25.878Z,32.26
2023-04-10T14:54:52.312Z,32.19
2023-04-10T14:57:18.765Z,32.05
2023-04-10T14:59:45.408Z,32.08
2023-04-10T15:02:12.639Z,32.21
2023-04-10T15:04:39.388Z,32.64
2023-04-10T15:07:06.235Z,32.66
2023-04-10T15:09:32.759Z,32.40
2023-04-10T15:11:59.246Z,32.52
2023-04-10T15:14:25.759Z,32.51
2023-04-10T15:16:54.140Z,32.73
2023-04-10T15:19:20.778Z,32.39
2023-04-10T15:21:47.287Z,32.94
2023-04-10T15:24:13.734Z,32.91
2023-04-10T15:26:45.290Z,33.04
2023-04-10T15:29:12.740Z,33.30
2023-04-10T15:31:39.387Z,33.37
2023-04-10T15:34:05.851Z,33.94
2023-04-10T15:36:32.547Z,34.08
2023-04-10T15:39:03.724Z,34.04
2023-04-10T15:41:33.156Z,33.97
2023-04-10T15:43:59.903Z,34.35
2023-04-10T15:46:26.970Z,34.04
2023-04-10T15:48:53.534Z,34.01
2023-04-10T15:51:20.553Z,34.26
2023-04-10T15:53:46.941Z,34.03
2023-04-10T15:56:15.976Z,34.37
2023-04-10T15:58:42.399Z,34.44
2023-04-10T16:01:08.875Z,34.39
2023-04-10T16:03:35.464Z,34.50
2023-04-10T16:06:01.952Z,34.87
2023-04-10T16:08:28.385Z,35.00
2023-04-10T16:10:56.067Z,35.29
2023-04-10T16:13:22.500Z,35.25
2023-04-10T16:15:49.851Z,35.71
2023-04-10T16:18:16.374Z,35.80
2023-04-10T16:20:43.035Z,36.03
2023-04-10T16:23:09.711Z,36.49
2023-04-10T16:25:36.119Z,36.16
2023-04-10T16:28:02.687Z,35.61
2023-04-10T16:30:29.095Z,35.94
2023-04-10T16:32:55.571Z,35.34
2023-04-10T16:35:22.406Z,35.34
2023-04-10T16:37:49.090Z,35.15
2023-04-10T16:40:16.079Z,35.16
2023-04-10T16:42:42.955Z,36.04
2023-04-10T16:45:10.139Z,35.29
2023-04-10T16:47:36.869Z,35.15
2023-04-10T16:50:03.407Z,35.01
2023-04-10T16:52:32.037Z,34.97
2023-04-10T16:54:58.428Z,35.96
2023-04-10T16:57:24.826Z,37.03
2023-04-10T16:59:55.791Z,34.45
2023-04-10T17:02:25.027Z,35.24
2023-04-10T17:04:53.681Z,35.89
2023-04-10T17:07:20.204Z,35.29
2023-04-10T17:09:46.618Z,35.05
2023-04-10T17:12:13.155Z,34.22
2023-04-10T17:14:39.614Z,34.16
2023-04-10T17:17:06.075Z,34.19
2023-04-10T17:19:32.568Z,34.80
2023-04-10T17:21:58.988Z,35.40
2023-04-10T17:24:25.496Z,35.79
2023-04-10T17:26:52.097Z,35.93
2023-04-10T17:29:18.517Z,36.69
2023-04-10T17:31:44.962Z,37.39
2023-04-10T17:34:11.447Z,37.53
2023-04-10T17:36:37.849Z,38.16
2023-04-10T17:39:05.546Z,38.34
2023-04-10T17:41:32.006Z,38.70
2023-04-10T17:43:58.402Z,39.09
2023-04-10T17:46:24.795Z,39.55
2023-04-10T17:48:51.329Z,39.88
2023-04-10T17:51:18.048Z,40.79
2023-04-10T17:53:46.093Z,41.19
2023-04-10T17:56:21.655Z,42.51
2023-04-10T17:58:48.302Z,42.01
2023-04-10T18:01:27.412Z,42.87
2023-04-10T18:03:54.001Z,42.67
2023-04-10T18:06:20.732Z,42.35
2023-04-10T18:08:47.201Z,42.80
2023-04-10T18:11:13.608Z,43.15
2023-04-10T18:13:40.058Z,43.49
2023-04-10T18:16:07.149Z,43.72
2023-04-10T18:18:34.175Z,44.04
2023-04-10T18:21:04.672Z,45.29
2023-04-10T18:23:31.520Z,44.84
2023-04-10T18:25:57.952Z,45.43
2023-04-10T18:28:24.835Z,45.92
2023-04-10T18:30:56.522Z,46.27
2023-04-10T18:33:26.403Z,46.59
2023-04-10T18:35:58.586Z,46.94
2023-04-10T18:38:25.981Z,47.00
2023-04-10T18:40:56.079Z,47.60
2023-04-10T18:43:25.382Z,47.76
2023-04-10T18:45:51.903Z,48.47
2023-04-10T18:48:18.342Z,48.60
2023-04-10T18:50:44.771Z,48.87
2023-04-10T18:53:11.202Z,49.52
2023-04-10T18:55:37.667Z,49.61
2023-04-10T18:58:04.081Z,50.19
2023-04-10T19:00:32.041Z,50.21
2023-04-10T19:02:58.528Z,50.47
2023-04-10T19:05:25.112Z,51.11
2023-04-10T19:08:02.954Z,51.27
2023-04-10T19:10:31.150Z,51.25
2023-04-10T19:12:57.593Z,51.65
2023-04-10T19:15:25.008Z,52.07
2023-04-10T19:17:54.901Z,52.77
2023-04-10T19:20:52.818Z,52.75
2023-04-10T19:23:08.065Z,53.10
2023-04-10T19:25:34.496Z,53.21
2023-04-10T19:28:01.178Z,53.94
2023-04-10T19:30:28.386Z,54.30
2023-04-10T19:32:55.793Z,54.95
2023-04-10T19:35:22.622Z,55.55
2023-04-10T19:37:49.934Z,56.13
2023-04-10T19:40:18.519Z,56.47
2023-04-10T19:42:45.355Z,57.19
2023-04-10T19:45:12.747Z,57.34
2023-04-10T19:47:39.266Z,58.55
2023-04-10T19:50:06.051Z,58.99
2023-04-10T19:52:32.465Z,59.36
2023-04-10T19:54:58.995Z,60.31
2023-04-10T19:57:25.479Z,60.84
2023-04-10T19:59:51.872Z,61.81
2023-04-10T20:02:18.497Z,62.08
2023-04-10T20:04:47.204Z,61.73
2023-04-10T20:07:15.014Z,63.16
2023-04-10T20:09:41.612Z,63.17
2023-04-10T20:12:08.530Z,63.38
2023-04-10T20:14:34.995Z,62.80
2023-04-10T20:17:01.398Z,62.60
2023-04-10T20:19:27.894Z,62.44
2023-04-10T20:21:54.344Z,62.58
2023-04-10T20:24:20.816Z,63.05
2023-04-10T20:26:47.258Z,62.11
2023-04-10T20:29:13.695Z,61.93
2023-04-10T20:31:40.217Z,63.10
2023-04-10T20:34:06.818Z,65.89
2023-04-10T20:36:34.727Z,67.96
2023-04-10T20:39:01.301Z,67.85
2023-04-10T20:41:27.909Z,69.55
2023-04-10T20:43:55.816Z,70.60
2023-04-10T20:46:22.413Z,71.59
2023-04-10T20:48:49.045Z,71.32
2023-04-10T20:51:15.578Z,72.00
2023-04-10T20:53:42.009Z,72.52
2023-04-10T20:56:08.839Z,72.97
2023-04-10T20:58:35.383Z,74.69
2023-04-10T21:01:01.961Z,75.11
2023-04-10T21:03:29.686Z,75.49
2023-04-10T21:05:56.417Z,76.37
2023-04-10T21:08:22.955Z,78.57
2023-04-10T21:10:49.506Z,79.54
2023-04-10T21:13:16.131Z,82.80
2023-04-10T21:15:43.146Z,83.68
2023-04-10T21:18:09.736Z,84.70
2023-04-10T21:20:36.261Z,87.16
2023-04-10T21:23:02.950Z,88.87
2023-04-10T21:25:32.627Z,90.06
2023-04-10T21:28:00.572Z,93.44
2023-04-10T21:30:27.315Z,95.31
2023-04-10T21:32:53.797Z,100.00
2023-04-10T21:35:20.394Z,100.00
2023-04-10T21:37:47.797Z,100.00
2023-04-10T21:40:14.180Z,100.00
2023-04-10T21:42:40.610Z,100.00
2023-04-10T21:45:07.456Z,100.00
2023-04-10T21:47:33.806Z,100.00
2023-04-10T21:50:00.315Z,100.00
2023-04-10T21:52:26.744Z,100.00
2023-04-10T21:54:53.209Z,100.00
2023-04-10T21:57:19.601Z,100.00
2023-04-10T21:59:46.057Z,100.00
2023-04-10T22:02:13.223Z,100.00
2023-04-10T22:04:47.979Z,100.00
2023-04-10T22:07:20.227Z,100.00
2023-04-10T22:09:46.681Z,100.00
2023-04-10T22:12:13.104Z,100.00
2023-04-10T22:14:39.535Z,100.00
2023-04-10T22:17:06.040Z,100.00
2023-04-10T22:19:32.556Z,100.00
2023-04-10T22:21:59.115Z,100.00
2023-04-10T22:24:25.775Z,100.00
2023-04-10T22:26:52.204Z,100.00
2023-04-10T22:29:18.658Z,100.00
2023-04-10T22:31:45.199Z,100.00
2023-04-10T22:34:11.764Z,100.00
2023-04-10T22:36:38.236Z,100.00
2023-04-10T22:39:04.810Z,100.00
2023-04-10T22:41:31.819Z,100.00
2023-04-10T22:43:58.464Z,100.00
2023-04-10T22:46:25.679Z,100.00
2023-04-10T22:48:53.890Z,100.00
2023-04-10T22:51:20.677Z,100.00
2023-04-10T22:53:47.109Z,100.00
2023-04-10T22:56:13.747Z,100.00
2023-04-10T22:58:40.697Z,100.00
2023-04-10T23:01:08.291Z,100.00
2023-04-10T23:03:35.456Z,100.00
2023-04-10T23:06:02.419Z,100.00
2023-04-10T23:08:28.870Z,100.00
2023-04-10T23:10:55.810Z,100.00
2023-04-10T23:13:22.518Z,100.00
2023-04-10T23:15:53.351Z,100.00
2023-04-10T23:18:19.915Z,100.00
2023-04-10T23:20:47.425Z,100.00
2023-04-10T23:23:14.339Z,100.00
2023-04-10T23:25:40.758Z,100.00
2023-04-10T23:28:07.313Z,100.00
2023-04-10T23:30:33.758Z,100.00
2023-04-10T23:33:00.184Z,100.00
2023-04-10T23:35:26.992Z,100.00
2023-04-10T23:37:54.109Z,100.00
2023-04-10T23:40:21.452Z,100.00
2023-04-10T23:42:47.931Z,100.00
2023-04-10T23:45:14.433Z,100.00
2023-04-10T23:47:40.880Z,100.00
2023-04-10T23:50:07.866Z,100.00
2023-04-10T23:52:34.253Z,100.00
2023-04-10T23:55:00.728Z,100.00
2023-04-10T23:57:27.101Z,100.00
2023-04-10T23:59:53.513Z,100.00
